sensor_id;sensor_type;location;lat;lon;timestamp;P1;durP1;ratioP1;P2;durP2;ratioP2
34828;SDS011;21042;47.620;12.188;2023-08-12T00:00:17;8.00;;;4.72;;
34828;SDS011;21042;47.620;12.188;2023-08-12T00:02:45;6.40;;;4.22;;
34828;SDS011;21042;47.620;12.188;2023-08-12T00:05:12;6.38;;;4.95;;
34828;SDS011;21042;47.620;12.188;2023-08-12T00:07:40;7.05;;;4.50;;
34828;SDS011;21042;47.620;12.188;2023-08-12T00:10:10;6.80;;;4.90;;
34828;SDS011;21042;47.620;12.188;2023-08-12T00:12:38;7.15;;;4.47;;
34828;SDS011;21042;47.620;12.188;2023-08-12T00:15:06;9.95;;;4.60;;
34828;SDS011;21042;47.620;12.188;2023-08-12T00:17:34;5.07;;;4.03;;
34828;SDS011;21042;47.620;12.188;2023-08-12T00:20:06;9.50;;;4.40;;
34828;SDS011;21042;47.620;12.188;2023-08-12T00:22:36;7.70;;;4.55;;
34828;SDS011;21042;47.620;12.188;2023-08-12T00:25:04;6.70;;;4.25;;
34828;SDS011;21042;47.620;12.188;2023-08-12T00:27:31;6.32;;;4.60;;
34828;SDS011;21042;47.620;12.188;2023-08-12T00:29:58;8.60;;;4.72;;
34828;SDS011;21042;47.620;12.188;2023-08-12T00:32:25;10.23;;;5.50;;
34828;SDS011;21042;47.620;12.188;2023-08-12T00:34:52;7.50;;;4.55;;
34828;SDS011;21042;47.620;12.188;2023-08-12T00:37:19;7.35;;;5.13;;
34828;SDS011;21042;47.620;12.188;2023-08-12T00:39:45;8.95;;;4.45;;
34828;SDS011;21042;47.620;12.188;2023-08-12T00:42:12;6.85;;;4.95;;
34828;SDS011;21042;47.620;12.188;2023-08-12T00:44:39;7.00;;;5.18;;
34828;SDS011;21042;47.620;12.188;2023-08-12T00:47:06;10.25;;;5.13;;
34828;SDS011;21042;47.620;12.188;2023-08-12T00:52:00;7.82;;;4.50;;
34828;SDS011;21042;47.620;12.188;2023-08-12T00:56:54;8.02;;;4.53;;
34828;SDS011;21042;47.620;12.188;2023-08-12T01:01:48;4.75;;;4.10;;
34828;SDS011;21042;47.620;12.188;2023-08-12T01:04:15;6.65;;;4.30;;
34828;SDS011;21042;47.620;12.188;2023-08-12T01:06:42;7.63;;;4.32;;
34828;SDS011;21042;47.620;12.188;2023-08-12T01:09:09;10.82;;;5.10;;
34828;SDS011;21042;47.620;12.188;2023-08-12T01:11:37;6.88;;;4.35;;
34828;SDS011;21042;47.620;12.188;2023-08-12T01:14:19;8.02;;;4.30;;
34828;SDS011;21042;47.620;12.188;2023-08-12T01:16:56;7.20;;;4.90;;
34828;SDS011;21042;47.620;12.188;2023-08-12T01:22:03;6.80;;;4.55;;
34828;SDS011;21042;47.620;12.188;2023-08-12T01:24:34;7.95;;;4.65;;
34828;SDS011;21042;47.620;12.188;2023-08-12T01:27:06;6.45;;;4.97;;
34828;SDS011;21042;47.620;12.188;2023-08-12T01:29:34;9.75;;;5.03;;
34828;SDS011;21042;47.620;12.188;2023-08-12T01:35:07;7.10;;;4.32;;
34828;SDS011;21042;47.620;12.188;2023-08-12T01:37:44;10.65;;;4.50;;
34828;SDS011;21042;47.620;12.188;2023-08-12T01:40:14;5.88;;;4.18;;
34828;SDS011;21042;47.620;12.188;2023-08-12T01:42:42;6.55;;;4.32;;
34828;SDS011;21042;47.620;12.188;2023-08-12T01:45:13;5.43;;;4.18;;
34828;SDS011;21042;47.620;12.188;2023-08-12T01:47:42;6.45;;;3.97;;
34828;SDS011;21042;47.620;12.188;2023-08-12T01:50:09;9.55;;;4.43;;
34828;SDS011;21042;47.620;12.188;2023-08-12T01:52:36;6.07;;;4.30;;
34828;SDS011;21042;47.620;12.188;2023-08-12T01:55:03;8.43;;;4.38;;
34828;SDS011;21042;47.620;12.188;2023-08-12T01:57:30;5.03;;;4.05;;
34828;SDS011;21042;47.620;12.188;2023-08-12T01:59:57;7.05;;;4.07;;
34828;SDS011;21042;47.620;12.188;2023-08-12T02:02:24;9.75;;;4.60;;
34828;SDS011;21042;47.620;12.188;2023-08-12T02:04:50;6.93;;;4.38;;
34828;SDS011;21042;47.620;12.188;2023-08-12T02:07:17;5.47;;;3.70;;
34828;SDS011;21042;47.620;12.188;2023-08-12T02:09:44;8.82;;;4.10;;
34828;SDS011;21042;47.620;12.188;2023-08-12T02:12:11;7.32;;;4.63;;
34828;SDS011;21042;47.620;12.188;2023-08-12T02:14:38;9.00;;;4.70;;
34828;SDS011;21042;47.620;12.188;2023-08-12T02:17:04;9.45;;;4.50;;
34828;SDS011;21042;47.620;12.188;2023-08-12T02:19:32;7.32;;;4.40;;
34828;SDS011;21042;47.620;12.188;2023-08-12T02:22:00;5.28;;;4.20;;
34828;SDS011;21042;47.620;12.188;2023-08-12T02:24:28;10.05;;;5.03;;
34828;SDS011;21042;47.620;12.188;2023-08-12T02:26:55;6.50;;;4.20;;
34828;SDS011;21042;47.620;12.188;2023-08-12T02:29:23;5.97;;;4.40;;
34828;SDS011;21042;47.620;12.188;2023-08-12T02:31:50;6.50;;;4.35;;
34828;SDS011;21042;47.620;12.188;2023-08-12T02:34:19;6.82;;;4.78;;
34828;SDS011;21042;47.620;12.188;2023-08-12T02:36:46;5.68;;;4.63;;
34828;SDS011;21042;47.620;12.188;2023-08-12T02:39:15;7.32;;;4.70;;
34828;SDS011;21042;47.620;12.188;2023-08-12T02:41:42;8.02;;;5.28;;
34828;SDS011;21042;47.620;12.188;2023-08-12T02:44:09;8.88;;;4.22;;
34828;SDS011;21042;47.620;12.188;2023-08-12T02:46:35;9.45;;;5.03;;
34828;SDS011;21042;47.620;12.188;2023-08-12T02:49:02;6.15;;;4.65;;
34828;SDS011;21042;47.620;12.188;2023-08-12T02:51:29;7.80;;;4.90;;
34828;SDS011;21042;47.620;12.188;2023-08-12T02:53:56;5.90;;;4.32;;
34828;SDS011;21042;47.620;12.188;2023-08-12T02:56:22;6.40;;;4.53;;
34828;SDS011;21042;47.620;12.188;2023-08-12T02:58:49;5.90;;;4.60;;
34828;SDS011;21042;47.620;12.188;2023-08-12T03:01:16;10.27;;;5.28;;
34828;SDS011;21042;47.620;12.188;2023-08-12T03:03:43;5.78;;;4.35;;
34828;SDS011;21042;47.620;12.188;2023-08-12T03:06:12;7.60;;;4.95;;
34828;SDS011;21042;47.620;12.188;2023-08-12T03:08:39;5.47;;;4.75;;
34828;SDS011;21042;47.620;12.188;2023-08-12T03:11:07;6.85;;;4.82;;
34828;SDS011;21042;47.620;12.188;2023-08-12T03:13:33;8.77;;;4.88;;
34828;SDS011;21042;47.620;12.188;2023-08-12T03:18:28;5.80;;;4.45;;
34828;SDS011;21042;47.620;12.188;2023-08-12T03:20:55;7.30;;;4.90;;
34828;SDS011;21042;47.620;12.188;2023-08-12T03:23:23;10.00;;;4.90;;
34828;SDS011;21042;47.620;12.188;2023-08-12T03:28:18;7.07;;;5.03;;
34828;SDS011;21042;47.620;12.188;2023-08-12T03:33:22;8.02;;;4.45;;
34828;SDS011;21042;47.620;12.188;2023-08-12T03:35:49;7.32;;;4.80;;
34828;SDS011;21042;47.620;12.188;2023-08-12T03:38:17;7.72;;;4.82;;
34828;SDS011;21042;47.620;12.188;2023-08-12T03:40:44;5.88;;;4.43;;
34828;SDS011;21042;47.620;12.188;2023-08-12T03:43:13;5.82;;;4.38;;
34828;SDS011;21042;47.620;12.188;2023-08-12T03:45:42;6.82;;;4.63;;
34828;SDS011;21042;47.620;12.188;2023-08-12T03:48:12;11.07;;;4.60;;
34828;SDS011;21042;47.620;12.188;2023-08-12T03:50:39;6.63;;;4.13;;
34828;SDS011;21042;47.620;12.188;2023-08-12T03:53:07;5.10;;;4.47;;
34828;SDS011;21042;47.620;12.188;2023-08-12T03:55:36;8.80;;;4.30;;
34828;SDS011;21042;47.620;12.188;2023-08-12T03:58:03;9.98;;;4.50;;
34828;SDS011;21042;47.620;12.188;2023-08-12T04:00:31;6.82;;;4.40;;
34828;SDS011;21042;47.620;12.188;2023-08-12T04:02:59;9.55;;;4.85;;
34828;SDS011;21042;47.620;12.188;2023-08-12T04:05:26;6.85;;;4.15;;
34828;SDS011;21042;47.620;12.188;2023-08-12T04:07:53;4.72;;;3.97;;
34828;SDS011;21042;47.620;12.188;2023-08-12T04:10:20;6.55;;;4.03;;
34828;SDS011;21042;47.620;12.188;2023-08-12T04:12:47;8.00;;;4.47;;
34828;SDS011;21042;47.620;12.188;2023-08-12T04:15:18;4.70;;;4.05;;
34828;SDS011;21042;47.620;12.188;2023-08-12T04:17:44;6.05;;;4.38;;
34828;SDS011;21042;47.620;12.188;2023-08-12T04:20:11;8.63;;;4.25;;
34828;SDS011;21042;47.620;12.188;2023-08-12T04:22:38;4.65;;;3.95;;
34828;SDS011;21042;47.620;12.188;2023-08-12T04:25:05;6.93;;;4.70;;
34828;SDS011;21042;47.620;12.188;2023-08-12T04:27:33;9.23;;;4.70;;
34828;SDS011;21042;47.620;12.188;2023-08-12T04:30:00;6.03;;;4.38;;
34828;SDS011;21042;47.620;12.188;2023-08-12T04:32:29;6.30;;;3.80;;
34828;SDS011;21042;47.620;12.188;2023-08-12T04:34:56;6.07;;;4.45;;
34828;SDS011;21042;47.620;12.188;2023-08-12T04:37:24;7.00;;;4.70;;
34828;SDS011;21042;47.620;12.188;2023-08-12T04:39:53;7.63;;;4.30;;
34828;SDS011;21042;47.620;12.188;2023-08-12T04:42:20;5.72;;;3.90;;
34828;SDS011;21042;47.620;12.188;2023-08-12T04:44:47;7.75;;;3.97;;
34828;SDS011;21042;47.620;12.188;2023-08-12T04:47:14;7.40;;;3.83;;
34828;SDS011;21042;47.620;12.188;2023-08-12T04:52:08;10.00;;;3.78;;
34828;SDS011;21042;47.620;12.188;2023-08-12T04:54:35;8.27;;;4.28;;
34828;SDS011;21042;47.620;12.188;2023-08-12T04:57:03;8.85;;;4.20;;
34828;SDS011;21042;47.620;12.188;2023-08-12T04:59:34;4.63;;;3.70;;
34828;SDS011;21042;47.620;12.188;2023-08-12T05:02:02;5.82;;;4.40;;
34828;SDS011;21042;47.620;12.188;2023-08-12T05:04:33;6.20;;;4.13;;
34828;SDS011;21042;47.620;12.188;2023-08-12T05:07:00;7.63;;;4.53;;
34828;SDS011;21042;47.620;12.188;2023-08-12T05:09:27;6.72;;;5.10;;
34828;SDS011;21042;47.620;12.188;2023-08-12T05:11:57;7.43;;;4.35;;
34828;SDS011;21042;47.620;12.188;2023-08-12T05:14:23;7.70;;;4.03;;
34828;SDS011;21042;47.620;12.188;2023-08-12T05:16:50;6.78;;;4.50;;
34828;SDS011;21042;47.620;12.188;2023-08-12T05:19:17;6.97;;;4.78;;
34828;SDS011;21042;47.620;12.188;2023-08-12T05:21:47;9.45;;;4.32;;
34828;SDS011;21042;47.620;12.188;2023-08-12T05:24:14;5.05;;;4.05;;
34828;SDS011;21042;47.620;12.188;2023-08-12T05:26:41;5.22;;;4.28;;
34828;SDS011;21042;47.620;12.188;2023-08-12T05:29:08;6.57;;;4.18;;
34828;SDS011;21042;47.620;12.188;2023-08-12T05:31:36;6.38;;;4.32;;
34828;SDS011;21042;47.620;12.188;2023-08-12T05:34:03;5.15;;;4.10;;
34828;SDS011;21042;47.620;12.188;2023-08-12T05:36:30;4.50;;;3.90;;
34828;SDS011;21042;47.620;12.188;2023-08-12T05:38:58;6.57;;;3.65;;
34828;SDS011;21042;47.620;12.188;2023-08-12T05:41:25;5.60;;;3.63;;
34828;SDS011;21042;47.620;12.188;2023-08-12T05:43:51;5.03;;;3.60;;
34828;SDS011;21042;47.620;12.188;2023-08-12T05:46:18;5.85;;;3.80;;
34828;SDS011;21042;47.620;12.188;2023-08-12T05:48:45;5.75;;;3.97;;
34828;SDS011;21042;47.620;12.188;2023-08-12T05:51:12;5.10;;;3.65;;
34828;SDS011;21042;47.620;12.188;2023-08-12T05:53:38;5.22;;;3.95;;
34828;SDS011;21042;47.620;12.188;2023-08-12T05:56:05;5.35;;;3.70;;
34828;SDS011;21042;47.620;12.188;2023-08-12T05:58:32;8.20;;;4.22;;
34828;SDS011;21042;47.620;12.188;2023-08-12T06:00:59;6.25;;;4.25;;
34828;SDS011;21042;47.620;12.188;2023-08-12T06:03:26;4.82;;;3.90;;
34828;SDS011;21042;47.620;12.188;2023-08-12T06:05:52;8.23;;;3.97;;
34828;SDS011;21042;47.620;12.188;2023-08-12T06:08:19;5.13;;;3.70;;
34828;SDS011;21042;47.620;12.188;2023-08-12T06:10:46;5.40;;;3.67;;
34828;SDS011;21042;47.620;12.188;2023-08-12T06:13:13;8.70;;;4.55;;
34828;SDS011;21042;47.620;12.188;2023-08-12T06:15:40;5.97;;;3.85;;
34828;SDS011;21042;47.620;12.188;2023-08-12T06:18:07;5.38;;;3.88;;
34828;SDS011;21042;47.620;12.188;2023-08-12T06:20:33;5.57;;;3.88;;
34828;SDS011;21042;47.620;12.188;2023-08-12T06:23:00;6.07;;;3.53;;
34828;SDS011;21042;47.620;12.188;2023-08-12T06:25:27;8.55;;;4.00;;
34828;SDS011;21042;47.620;12.188;2023-08-12T06:27:54;7.70;;;4.32;;
34828;SDS011;21042;47.620;12.188;2023-08-12T06:30:21;3.83;;;3.33;;
34828;SDS011;21042;47.620;12.188;2023-08-12T06:32:48;4.88;;;3.47;;
34828;SDS011;21042;47.620;12.188;2023-08-12T06:35:15;6.30;;;3.92;;
34828;SDS011;21042;47.620;12.188;2023-08-12T06:37:42;6.82;;;3.67;;
34828;SDS011;21042;47.620;12.188;2023-08-12T06:40:09;5.90;;;3.60;;
34828;SDS011;21042;47.620;12.188;2023-08-12T06:42:36;4.63;;;3.60;;
34828;SDS011;21042;47.620;12.188;2023-08-12T06:45:03;6.50;;;3.42;;
34828;SDS011;21042;47.620;12.188;2023-08-12T06:47:30;6.43;;;3.70;;
34828;SDS011;21042;47.620;12.188;2023-08-12T06:52:24;5.15;;;3.85;;
34828;SDS011;21042;47.620;12.188;2023-08-12T06:54:51;6.20;;;3.42;;
34828;SDS011;21042;47.620;12.188;2023-08-12T06:57:18;5.70;;;3.63;;
34828;SDS011;21042;47.620;12.188;2023-08-12T06:59:44;5.00;;;3.50;;
34828;SDS011;21042;47.620;12.188;2023-08-12T07:02:11;4.38;;;3.65;;
34828;SDS011;21042;47.620;12.188;2023-08-12T07:04:39;6.65;;;3.83;;
34828;SDS011;21042;47.620;12.188;2023-08-12T07:07:05;6.68;;;3.65;;
34828;SDS011;21042;47.620;12.188;2023-08-12T07:09:32;6.07;;;3.65;;
34828;SDS011;21042;47.620;12.188;2023-08-12T07:11:59;7.60;;;4.10;;
34828;SDS011;21042;47.620;12.188;2023-08-12T07:14:27;6.20;;;3.38;;
34828;SDS011;21042;47.620;12.188;2023-08-12T07:16:54;5.78;;;3.80;;
34828;SDS011;21042;47.620;12.188;2023-08-12T07:19:21;8.30;;;4.07;;
34828;SDS011;21042;47.620;12.188;2023-08-12T07:21:48;4.15;;;3.53;;
34828;SDS011;21042;47.620;12.188;2023-08-12T07:24:15;5.70;;;3.67;;
34828;SDS011;21042;47.620;12.188;2023-08-12T07:26:42;4.40;;;3.45;;
34828;SDS011;21042;47.620;12.188;2023-08-12T07:29:09;4.60;;;3.30;;
34828;SDS011;21042;47.620;12.188;2023-08-12T07:31:35;6.57;;;3.63;;
34828;SDS011;21042;47.620;12.188;2023-08-12T07:34:02;5.30;;;3.60;;
34828;SDS011;21042;47.620;12.188;2023-08-12T07:36:29;6.30;;;3.88;;
34828;SDS011;21042;47.620;12.188;2023-08-12T07:38:56;5.50;;;3.35;;
34828;SDS011;21042;47.620;12.188;2023-08-12T07:41:22;5.43;;;3.25;;
34828;SDS011;21042;47.620;12.188;2023-08-12T07:46:16;3.88;;;3.25;;
34828;SDS011;21042;47.620;12.188;2023-08-12T07:48:43;3.75;;;3.28;;
34828;SDS011;21042;47.620;12.188;2023-08-12T07:51:10;4.50;;;3.15;;
34828;SDS011;21042;47.620;12.188;2023-08-12T07:53:37;4.68;;;3.42;;
34828;SDS011;21042;47.620;12.188;2023-08-12T07:56:03;4.05;;;3.28;;
34828;SDS011;21042;47.620;12.188;2023-08-12T07:58:30;6.53;;;3.10;;
34828;SDS011;21042;47.620;12.188;2023-08-12T08:00:57;4.80;;;3.42;;
34828;SDS011;21042;47.620;12.188;2023-08-12T08:03:24;4.38;;;3.33;;
34828;SDS011;21042;47.620;12.188;2023-08-12T08:05:51;5.13;;;3.15;;
34828;SDS011;21042;47.620;12.188;2023-08-12T08:08:18;3.65;;;3.17;;
34828;SDS011;21042;47.620;12.188;2023-08-12T08:10:46;3.47;;;3.10;;
34828;SDS011;21042;47.620;12.188;2023-08-12T08:13:13;3.83;;;3.38;;
34828;SDS011;21042;47.620;12.188;2023-08-12T08:15:40;4.20;;;3.38;;
34828;SDS011;21042;47.620;12.188;2023-08-12T08:18:06;4.68;;;3.40;;
34828;SDS011;21042;47.620;12.188;2023-08-12T08:20:34;4.00;;;3.20;;
34828;SDS011;21042;47.620;12.188;2023-08-12T08:23:01;3.20;;;2.90;;
34828;SDS011;21042;47.620;12.188;2023-08-12T08:27:55;4.88;;;3.45;;
34828;SDS011;21042;47.620;12.188;2023-08-12T08:30:21;5.30;;;3.42;;
34828;SDS011;21042;47.620;12.188;2023-08-12T08:32:49;6.43;;;3.58;;
34828;SDS011;21042;47.620;12.188;2023-08-12T08:35:16;4.45;;;3.80;;
34828;SDS011;21042;47.620;12.188;2023-08-12T08:37:42;5.60;;;3.53;;
34828;SDS011;21042;47.620;12.188;2023-08-12T08:40:10;4.07;;;3.47;;
34828;SDS011;21042;47.620;12.188;2023-08-12T08:42:37;5.15;;;3.20;;
34828;SDS011;21042;47.620;12.188;2023-08-12T08:45:04;3.83;;;3.45;;
34828;SDS011;21042;47.620;12.188;2023-08-12T08:47:38;9.02;;;3.40;;
34828;SDS011;21042;47.620;12.188;2023-08-12T08:50:07;5.68;;;3.67;;
34828;SDS011;21042;47.620;12.188;2023-08-12T08:52:35;4.97;;;3.25;;
34828;SDS011;21042;47.620;12.188;2023-08-12T08:55:04;7.43;;;4.10;;
34828;SDS011;21042;47.620;12.188;2023-08-12T08:57:33;7.97;;;4.18;;
34828;SDS011;21042;47.620;12.188;2023-08-12T09:00:04;4.20;;;3.70;;
34828;SDS011;21042;47.620;12.188;2023-08-12T09:02:38;5.60;;;3.47;;
34828;SDS011;21042;47.620;12.188;2023-08-12T09:05:06;4.03;;;3.40;;
34828;SDS011;21042;47.620;12.188;2023-08-12T09:07:34;3.90;;;3.38;;
34828;SDS011;21042;47.620;12.188;2023-08-12T09:12:30;6.35;;;3.53;;
34828;SDS011;21042;47.620;12.188;2023-08-12T09:14:57;3.60;;;3.03;;
34828;SDS011;21042;47.620;12.188;2023-08-12T09:17:25;3.60;;;3.30;;
34828;SDS011;21042;47.620;12.188;2023-08-12T09:19:52;3.20;;;2.90;;
34828;SDS011;21042;47.620;12.188;2023-08-12T09:22:18;5.00;;;3.17;;
34828;SDS011;21042;47.620;12.188;2023-08-12T09:27:12;5.72;;;3.40;;
34828;SDS011;21042;47.620;12.188;2023-08-12T09:29:44;4.13;;;3.17;;
34828;SDS011;21042;47.620;12.188;2023-08-12T09:32:11;4.13;;;3.45;;
34828;SDS011;21042;47.620;12.188;2023-08-12T09:34:51;3.90;;;3.42;;
34828;SDS011;21042;47.620;12.188;2023-08-12T09:37:20;5.10;;;3.65;;
34828;SDS011;21042;47.620;12.188;2023-08-12T09:39:50;4.28;;;3.25;;
34828;SDS011;21042;47.620;12.188;2023-08-12T09:42:20;5.13;;;3.60;;
34828;SDS011;21042;47.620;12.188;2023-08-12T09:47:13;5.85;;;3.17;;
34828;SDS011;21042;47.620;12.188;2023-08-12T09:49:40;4.38;;;3.33;;
34828;SDS011;21042;47.620;12.188;2023-08-12T09:54:34;9.10;;;3.63;;
34828;SDS011;21042;47.620;12.188;2023-08-12T09:57:02;4.13;;;3.47;;
34828;SDS011;21042;47.620;12.188;2023-08-12T09:59:31;3.95;;;2.85;;
34828;SDS011;21042;47.620;12.188;2023-08-12T10:02:00;7.07;;;3.00;;
34828;SDS011;21042;47.620;12.188;2023-08-12T10:04:37;3.22;;;2.92;;
34828;SDS011;21042;47.620;12.188;2023-08-12T10:07:11;3.67;;;2.80;;
34828;SDS011;21042;47.620;12.188;2023-08-12T10:09:41;3.15;;;2.85;;
34828;SDS011;21042;47.620;12.188;2023-08-12T10:12:09;3.10;;;2.80;;
34828;SDS011;21042;47.620;12.188;2023-08-12T10:14:37;3.65;;;2.90;;
34828;SDS011;21042;47.620;12.188;2023-08-12T10:17:04;3.58;;;3.28;;
34828;SDS011;21042;47.620;12.188;2023-08-12T10:19:32;4.78;;;3.00;;
34828;SDS011;21042;47.620;12.188;2023-08-12T10:22:00;6.55;;;3.40;;
34828;SDS011;21042;47.620;12.188;2023-08-12T10:24:30;3.67;;;3.05;;
34828;SDS011;21042;47.620;12.188;2023-08-12T10:26:57;3.75;;;3.10;;
34828;SDS011;21042;47.620;12.188;2023-08-12T10:29:24;3.70;;;3.08;;
34828;SDS011;21042;47.620;12.188;2023-08-12T10:34:24;3.00;;;2.70;;
34828;SDS011;21042;47.620;12.188;2023-08-12T10:37:02;3.33;;;3.03;;
34828;SDS011;21042;47.620;12.188;2023-08-12T10:39:33;4.60;;;3.28;;
34828;SDS011;21042;47.620;12.188;2023-08-12T10:42:00;3.17;;;2.88;;
34828;SDS011;21042;47.620;12.188;2023-08-12T10:44:38;4.50;;;3.70;;
34828;SDS011;21042;47.620;12.188;2023-08-12T10:47:09;4.32;;;3.42;;
34828;SDS011;21042;47.620;12.188;2023-08-12T10:49:38;2.92;;;2.72;;
34828;SDS011;21042;47.620;12.188;2023-08-12T10:52:19;4.60;;;3.03;;
34828;SDS011;21042;47.620;12.188;2023-08-12T10:54:52;3.13;;;2.90;;
34828;SDS011;21042;47.620;12.188;2023-08-12T10:57:34;3.45;;;2.90;;
34828;SDS011;21042;47.620;12.188;2023-08-12T11:00:05;4.38;;;3.20;;
34828;SDS011;21042;47.620;12.188;2023-08-12T11:02:46;5.43;;;3.30;;
34828;SDS011;21042;47.620;12.188;2023-08-12T11:05:15;3.13;;;2.88;;
34828;SDS011;21042;47.620;12.188;2023-08-12T11:07:57;5.90;;;3.22;;
34828;SDS011;21042;47.620;12.188;2023-08-12T11:10:29;4.57;;;2.90;;
34828;SDS011;21042;47.620;12.188;2023-08-12T11:13:00;4.00;;;3.10;;
34828;SDS011;21042;47.620;12.188;2023-08-12T11:18:04;3.80;;;3.47;;
34828;SDS011;21042;47.620;12.188;2023-08-12T11:20:42;3.75;;;3.35;;
34828;SDS011;21042;47.620;12.188;2023-08-12T11:23:09;4.13;;;3.20;;
34828;SDS011;21042;47.620;12.188;2023-08-12T11:25:37;4.93;;;3.20;;
34828;SDS011;21042;47.620;12.188;2023-08-12T11:28:05;4.68;;;3.65;;
34828;SDS011;21042;47.620;12.188;2023-08-12T11:30:32;5.00;;;3.28;;
34828;SDS011;21042;47.620;12.188;2023-08-12T11:33:00;4.68;;;3.72;;
34828;SDS011;21042;47.620;12.188;2023-08-12T11:35:28;5.22;;;3.63;;
34828;SDS011;21042;47.620;12.188;2023-08-12T11:37:57;4.40;;;3.20;;
34828;SDS011;21042;47.620;12.188;2023-08-12T11:40:25;7.57;;;3.60;;
34828;SDS011;21042;47.620;12.188;2023-08-12T11:42:53;7.22;;;3.50;;
34828;SDS011;21042;47.620;12.188;2023-08-12T11:45:23;4.88;;;3.53;;
34828;SDS011;21042;47.620;12.188;2023-08-12T11:47:51;3.60;;;3.30;;
34828;SDS011;21042;47.620;12.188;2023-08-12T11:50:23;3.85;;;3.55;;
34828;SDS011;21042;47.620;12.188;2023-08-12T11:52:52;4.75;;;3.30;;
34828;SDS011;21042;47.620;12.188;2023-08-12T11:55:21;4.18;;;3.30;;
34828;SDS011;21042;47.620;12.188;2023-08-12T11:57:49;4.72;;;3.67;;
34828;SDS011;21042;47.620;12.188;2023-08-12T12:00:17;4.53;;;3.38;;
34828;SDS011;21042;47.620;12.188;2023-08-12T12:05:18;4.65;;;3.47;;
34828;SDS011;21042;47.620;12.188;2023-08-12T12:07:50;4.53;;;3.28;;
34828;SDS011;21042;47.620;12.188;2023-08-12T12:10:27;4.40;;;3.30;;
34828;SDS011;21042;47.620;12.188;2023-08-12T12:13:01;4.07;;;3.45;;
34828;SDS011;21042;47.620;12.188;2023-08-12T12:15:30;3.50;;;3.20;;
34828;SDS011;21042;47.620;12.188;2023-08-12T12:17:58;5.63;;;3.53;;
34828;SDS011;21042;47.620;12.188;2023-08-12T12:20:25;4.57;;;3.35;;
34828;SDS011;21042;47.620;12.188;2023-08-12T12:23:07;3.30;;;3.00;;
34828;SDS011;21042;47.620;12.188;2023-08-12T12:25:34;3.78;;;3.40;;
34828;SDS011;21042;47.620;12.188;2023-08-12T12:28:00;5.38;;;3.25;;
34828;SDS011;21042;47.620;12.188;2023-08-12T12:30:27;4.47;;;3.25;;
34828;SDS011;21042;47.620;12.188;2023-08-12T12:32:54;4.97;;;3.85;;
34828;SDS011;21042;47.620;12.188;2023-08-12T12:35:21;4.40;;;3.20;;
34828;SDS011;21042;47.620;12.188;2023-08-12T12:37:48;7.65;;;3.72;;
34828;SDS011;21042;47.620;12.188;2023-08-12T12:40:14;3.88;;;3.53;;
34828;SDS011;21042;47.620;12.188;2023-08-12T12:45:08;4.05;;;3.65;;
34828;SDS011;21042;47.620;12.188;2023-08-12T12:47:35;4.63;;;3.00;;
34828;SDS011;21042;47.620;12.188;2023-08-12T12:50:04;3.83;;;3.35;;
34828;SDS011;21042;47.620;12.188;2023-08-12T12:52:31;7.85;;;3.17;;
34828;SDS011;21042;47.620;12.188;2023-08-12T12:54:58;4.43;;;3.08;;
34828;SDS011;21042;47.620;12.188;2023-08-12T12:57:26;7.80;;;3.30;;
34828;SDS011;21042;47.620;12.188;2023-08-12T13:02:19;4.88;;;3.47;;
34828;SDS011;21042;47.620;12.188;2023-08-12T13:04:46;3.22;;;2.97;;
34828;SDS011;21042;47.620;12.188;2023-08-12T13:07:13;7.07;;;3.20;;
34828;SDS011;21042;47.620;12.188;2023-08-12T13:09:40;5.63;;;2.95;;
34828;SDS011;21042;47.620;12.188;2023-08-12T13:12:07;6.57;;;3.50;;
34828;SDS011;21042;47.620;12.188;2023-08-12T13:17:01;6.63;;;3.50;;
34828;SDS011;21042;47.620;12.188;2023-08-12T13:19:28;4.30;;;3.38;;
34828;SDS011;21042;47.620;12.188;2023-08-12T13:21:54;7.43;;;3.78;;
34828;SDS011;21042;47.620;12.188;2023-08-12T13:24:21;5.70;;;3.70;;
34828;SDS011;21042;47.620;12.188;2023-08-12T13:26:48;4.35;;;3.40;;
34828;SDS011;21042;47.620;12.188;2023-08-12T13:29:15;4.68;;;3.03;;
34828;SDS011;21042;47.620;12.188;2023-08-12T13:31:42;3.45;;;2.97;;
34828;SDS011;21042;47.620;12.188;2023-08-12T13:34:08;4.05;;;3.65;;
34828;SDS011;21042;47.620;12.188;2023-08-12T13:36:35;4.63;;;3.40;;
34828;SDS011;21042;47.620;12.188;2023-08-12T13:39:02;6.35;;;3.40;;
34828;SDS011;21042;47.620;12.188;2023-08-12T13:41:29;5.75;;;3.17;;
34828;SDS011;21042;47.620;12.188;2023-08-12T13:43:56;3.92;;;3.40;;
34828;SDS011;21042;47.620;12.188;2023-08-12T13:48:49;6.35;;;3.90;;
34828;SDS011;21042;47.620;12.188;2023-08-12T13:51:16;4.22;;;3.30;;
34828;SDS011;21042;47.620;12.188;2023-08-12T13:53:43;7.13;;;3.85;;
34828;SDS011;21042;47.620;12.188;2023-08-12T14:01:04;4.85;;;3.58;;
34828;SDS011;21042;47.620;12.188;2023-08-12T14:03:31;6.03;;;3.30;;
34828;SDS011;21042;47.620;12.188;2023-08-12T14:05:59;3.67;;;3.33;;
34828;SDS011;21042;47.620;12.188;2023-08-12T14:08:25;4.88;;;3.80;;
34828;SDS011;21042;47.620;12.188;2023-08-12T14:10:52;5.78;;;3.28;;
34828;SDS011;21042;47.620;12.188;2023-08-12T14:13:19;4.07;;;3.30;;
34828;SDS011;21042;47.620;12.188;2023-08-12T14:18:13;3.60;;;2.97;;
34828;SDS011;21042;47.620;12.188;2023-08-12T14:23:06;3.97;;;3.58;;
34828;SDS011;21042;47.620;12.188;2023-08-12T14:25:34;6.55;;;3.42;;
34828;SDS011;21042;47.620;12.188;2023-08-12T14:28:01;7.05;;;3.45;;
34828;SDS011;21042;47.620;12.188;2023-08-12T14:30:29;5.72;;;3.28;;
34828;SDS011;21042;47.620;12.188;2023-08-12T14:32:56;6.55;;;3.85;;
34828;SDS011;21042;47.620;12.188;2023-08-12T14:35:23;3.53;;;3.00;;
34828;SDS011;21042;47.620;12.188;2023-08-12T14:37:50;8.07;;;4.10;;
34828;SDS011;21042;47.620;12.188;2023-08-12T14:42:44;3.22;;;2.75;;
34828;SDS011;21042;47.620;12.188;2023-08-12T14:45:11;3.50;;;3.20;;
34828;SDS011;21042;47.620;12.188;2023-08-12T14:50:04;3.30;;;3.00;;
34828;SDS011;21042;47.620;12.188;2023-08-12T14:52:31;3.92;;;3.20;;
34828;SDS011;21042;47.620;12.188;2023-08-12T14:54:58;4.80;;;3.08;;
34828;SDS011;21042;47.620;12.188;2023-08-12T14:59:52;4.95;;;3.45;;
34828;SDS011;21042;47.620;12.188;2023-08-12T15:02:22;6.20;;;3.08;;
34828;SDS011;21042;47.620;12.188;2023-08-12T15:04:49;4.97;;;3.15;;
34828;SDS011;21042;47.620;12.188;2023-08-12T15:07:16;3.95;;;3.05;;
34828;SDS011;21042;47.620;12.188;2023-08-12T15:09:45;4.60;;;3.15;;
34828;SDS011;21042;47.620;12.188;2023-08-12T15:12:12;5.18;;;2.92;;
34828;SDS011;21042;47.620;12.188;2023-08-12T15:14:39;3.72;;;3.03;;
34828;SDS011;21042;47.620;12.188;2023-08-12T15:17:06;3.72;;;3.00;;
34828;SDS011;21042;47.620;12.188;2023-08-12T15:19:33;5.28;;;2.58;;
34828;SDS011;21042;47.620;12.188;2023-08-12T15:24:26;3.40;;;3.05;;
34828;SDS011;21042;47.620;12.188;2023-08-12T15:26:53;3.63;;;3.08;;
34828;SDS011;21042;47.620;12.188;2023-08-12T15:31:46;4.57;;;3.15;;
34828;SDS011;21042;47.620;12.188;2023-08-12T15:36:41;5.57;;;3.53;;
34828;SDS011;21042;47.620;12.188;2023-08-12T15:39:08;4.47;;;3.30;;
34828;SDS011;21042;47.620;12.188;2023-08-12T15:44:06;4.38;;;3.53;;
34828;SDS011;21042;47.620;12.188;2023-08-12T15:48:59;4.32;;;3.28;;
34828;SDS011;21042;47.620;12.188;2023-08-12T15:53:53;3.72;;;3.30;;
34828;SDS011;21042;47.620;12.188;2023-08-12T15:58:46;6.25;;;3.83;;
34828;SDS011;21042;47.620;12.188;2023-08-12T16:03:40;5.30;;;3.22;;
34828;SDS011;21042;47.620;12.188;2023-08-12T16:06:07;4.75;;;3.50;;
34828;SDS011;21042;47.620;12.188;2023-08-12T16:08:33;6.80;;;3.70;;
34828;SDS011;21042;47.620;12.188;2023-08-12T16:11:00;7.45;;;3.90;;